SPEO2: Bird Creek, Sperry, OK

Data processed at Mon Dec 17 2018 23:32


All information presented herein is the property of the government of the United States of America and may be revised or deleted at any time without prior notice.
Dissemination of this information without the expressed written consent of the Public Affairs Office, Tulsa District U.S. Army Corps of Engineers is strictly prohibited.
These data are gathered electronically and, as presented, have not undergone any form of quality control. These data are not guaranteed to be valid or correct.
Go to home page.
Go to station list.
Go to home page.

Upstream stations:

Downstream station:
Previous Day
Next Day
Current Day
    
SHEF ID:       SPEO2     Bird Creek near Sperry, OK
STATION TYPE:  

               PRECIP     STAGE  STAGE(2)  RIV-FLOW  WTR-TEMP   DIS-OXY        PH   CONDUCT  BAT-LOAD
                   in        ft        ft       cfs         F      mg/l        su   umho/cm      volt
              Ccp-Rev   Ccp-Rev   Ccp-Rev   Ccp-Rev   Ccp-Rev   Ccp-Rev   Ccp-Rev   Ccp-Rev   Ccp-Rev
(US/Central)
12/17 00:00      0.00      1.69      1.63        87     41.68     11.32      7.71       313     11.86
12/17 01:00      0.00      1.70      1.64        89     41.74     11.44      7.72       312     11.77
12/17 02:00      0.00      1.72      1.66        93     41.76     11.48      7.73       312     11.77
12/17 03:00      0.00      1.73      1.66        95     41.90     11.60      7.74       312     11.77
12/17 04:00      0.00      1.73      1.68        95     41.99     11.63      7.76       312     11.77
12/17 05:00      0.00      1.74      1.68        97     41.97     11.55      7.76       314     11.77
12/17 06:00      0.00      1.75      1.69       100     41.85     11.44      7.76       315     11.77
12/17 07:00      0.00      1.76      1.70       102     41.59     11.31      7.76       317     11.77
12/17 08:00      0.00      1.77      1.70       104     41.29     11.21      7.75       319     11.77
12/17 09:00      0.00      1.77      1.72       104     40.98     11.17      7.74       322     11.77
12/17 10:00      0.00      1.76      1.72       102     40.87     11.18      7.75       324     11.93
12/17 11:00      0.00      1.77      1.73       104     41.04     11.33      7.76       326     12.17
12/17 12:00      0.00      1.77      1.73       104     41.25     11.42      7.77       328     12.17
12/17 13:00      0.00      1.77      1.73       104     41.40     11.52      7.78       330     12.09
12/17 14:00      0.00      1.76      1.72       102     41.50     11.60      7.79       331     12.33
12/17 15:00      0.00      1.76      1.72       102     41.54     11.79      7.82       334     12.41
12/17 16:00      0.00      1.76      1.72       102     41.54     11.83      7.82       334     12.33
12/17 17:00      0.00      1.75      1.71       100     41.45     11.81      7.82       337     12.17
12/17 18:00      0.00      1.75      1.71       100     41.40     11.79      7.82       338     12.09
12/17 19:00      0.00      1.75      1.70       100     41.40     11.68      7.82       340     12.01
12/17 20:00      0.00      1.74      1.70        97     41.47     11.61      7.81       342     11.93
12/17 21:00      0.00      1.74      1.70        97     41.54     11.56      7.80       345     11.93
12/17 22:00      0.00      1.74      1.69        97     41.68     11.49      7.79       348     11.86
12/17 23:00      0.00      1.74      1.69        97     41.83     11.38      7.77       352     11.86